createdAt,value
2022-11-04T00:00:55.382Z,0.00
2022-11-04T00:01:55.405Z,0.00
2022-11-04T00:02:55.344Z,0.00
2022-11-04T00:03:55.316Z,0.00
2022-11-04T00:04:55.303Z,0.00
2022-11-04T00:05:55.283Z,0.00
2022-11-04T00:06:55.291Z,0.00
2022-11-04T00:07:55.272Z,0.00
2022-11-04T00:08:55.262Z,0.00
2022-11-04T00:09:55.242Z,0.00
2022-11-04T00:10:55.236Z,0.00
2022-11-04T00:11:55.215Z,0.00
2022-11-04T00:12:55.219Z,0.00
2022-11-04T00:13:55.189Z,0.00
2022-11-04T00:14:55.172Z,0.00
2022-11-04T00:15:55.161Z,0.00
2022-11-04T00:16:55.153Z,0.00
2022-11-04T00:17:55.152Z,0.00
2022-11-04T00:18:55.122Z,0.00
2022-11-04T00:19:55.102Z,0.00
2022-11-04T00:20:55.099Z,0.00
2022-11-04T00:21:55.082Z,0.00
2022-11-04T00:22:55.079Z,0.00
2022-11-04T00:23:55.058Z,0.00
2022-11-04T00:24:55.042Z,0.00
2022-11-04T00:25:55.029Z,0.00
2022-11-04T00:26:55.011Z,0.00
2022-11-04T00:27:55.011Z,0.00
2022-11-04T00:28:54.980Z,0.00
2022-11-04T00:29:54.970Z,0.00
2022-11-04T00:30:54.961Z,0.00
2022-11-04T00:31:54.948Z,0.00
2022-11-04T00:32:54.949Z,0.00
2022-11-04T00:33:54.919Z,0.00
2022-11-04T00:34:54.904Z,0.00
2022-11-04T00:35:54.900Z,0.00
2022-11-04T00:36:54.973Z,0.00
2022-11-04T00:37:54.886Z,0.00
2022-11-04T00:38:54.851Z,0.00
2022-11-04T00:39:54.845Z,0.00
2022-11-04T00:40:54.819Z,0.00
2022-11-04T00:41:54.816Z,0.00
2022-11-04T00:42:54.815Z,0.00
2022-11-04T00:43:54.791Z,0.00
2022-11-04T00:44:54.777Z,0.00
2022-11-04T00:45:54.776Z,0.00
2022-11-04T00:46:54.747Z,0.00
2022-11-04T00:47:54.767Z,0.00
2022-11-04T00:48:54.727Z,0.00
2022-11-04T00:49:54.705Z,0.00
2022-11-04T00:50:54.686Z,0.00
2022-11-04T00:51:54.689Z,0.00
2022-11-04T00:52:54.679Z,0.00
2022-11-04T00:53:54.667Z,0.00
2022-11-04T00:54:54.645Z,0.00
2022-11-04T00:55:54.624Z,0.00
2022-11-04T00:56:54.615Z,0.00
2022-11-04T00:57:54.617Z,0.00
2022-11-04T00:58:54.586Z,0.00
2022-11-04T00:59:54.582Z,0.00
2022-11-04T01:00:54.621Z,0.00
2022-11-04T01:01:54.673Z,0.00
2022-11-04T01:02:54.546Z,0.00
2022-11-04T01:03:54.523Z,0.00
2022-11-04T01:04:54.503Z,0.00
2022-11-04T01:05:54.506Z,0.00
2022-11-04T01:06:54.483Z,0.00
2022-11-04T01:07:54.483Z,0.00
2022-11-04T01:08:54.484Z,0.00
2022-11-04T01:09:54.444Z,0.00
2022-11-04T01:10:54.433Z,0.00
2022-11-04T01:11:54.436Z,0.00
2022-11-04T01:12:54.412Z,0.00
2022-11-04T01:13:54.400Z,0.00
2022-11-04T01:14:54.381Z,0.00
2022-11-04T01:15:54.371Z,0.00
2022-11-04T01:16:54.354Z,0.00
2022-11-04T01:17:54.368Z,0.00
2022-11-04T01:18:54.333Z,0.00
2022-11-04T01:19:54.320Z,0.00
2022-11-04T01:20:54.292Z,0.00
2022-11-04T01:21:54.290Z,0.00
2022-11-04T01:22:54.292Z,0.00
2022-11-04T01:23:54.272Z,0.00
2022-11-04T01:24:54.249Z,0.00
2022-11-04T01:25:54.232Z,0.00
2022-11-04T01:26:54.220Z,0.00
2022-11-04T01:27:54.230Z,0.00
2022-11-04T01:28:54.189Z,0.00
2022-11-04T01:29:54.201Z,0.00
2022-11-04T01:30:54.168Z,0.00
2022-11-04T01:31:54.149Z,0.00
2022-11-04T01:32:54.159Z,0.00
2022-11-04T01:33:54.127Z,0.00
2022-11-04T01:34:54.112Z,0.00
2022-11-04T01:35:54.098Z,0.00
2022-11-04T01:36:54.089Z,0.00
2022-11-04T01:37:54.088Z,0.00
2022-11-04T01:38:54.056Z,0.00
2022-11-04T01:39:54.048Z,0.00
2022-11-04T01:40:54.037Z,0.00
2022-11-04T01:41:54.074Z,0.00
2022-11-04T01:42:54.015Z,0.00
2022-11-04T01:43:54.026Z,0.00
2022-11-04T01:44:53.989Z,0.00
2022-11-04T01:45:53.976Z,0.00
2022-11-04T01:46:53.962Z,0.00
2022-11-04T01:47:53.954Z,0.00
2022-11-04T01:48:53.935Z,0.00
2022-11-04T01:49:53.927Z,0.00
2022-11-04T01:50:53.897Z,0.00
2022-11-04T01:51:53.897Z,0.00
2022-11-04T01:52:53.886Z,0.00
2022-11-04T01:53:53.865Z,0.00
2022-11-04T01:54:53.853Z,0.00
2022-11-04T01:55:53.835Z,0.00
2022-11-04T01:56:53.834Z,0.00
2022-11-04T01:57:53.825Z,0.00
2022-11-04T01:58:53.803Z,0.00
2022-11-04T01:59:53.782Z,0.00
2022-11-04T02:00:53.807Z,0.00
2022-11-04T02:01:53.847Z,0.00
2022-11-04T02:02:53.754Z,0.00
2022-11-04T02:03:53.732Z,0.00
2022-11-04T02:04:53.725Z,0.00
2022-11-04T02:05:53.713Z,0.00
2022-11-04T02:06:53.701Z,0.00
2022-11-04T02:07:53.685Z,0.00
2022-11-04T02:08:53.669Z,0.00
2022-11-04T02:09:53.669Z,0.00
2022-11-04T02:10:53.652Z,0.00
2022-11-04T02:11:53.632Z,0.00
2022-11-04T02:12:53.634Z,0.00
2022-11-04T02:13:53.611Z,0.00
2022-11-04T02:14:53.591Z,0.00
2022-11-04T02:15:53.584Z,0.00
2022-11-04T02:16:53.561Z,0.00
2022-11-04T02:17:53.560Z,0.00
2022-11-04T02:18:53.537Z,0.00
2022-11-04T02:19:53.519Z,0.00
2022-11-04T02:20:53.510Z,0.00
2022-11-04T02:21:53.492Z,0.00
2022-11-04T02:22:53.509Z,0.00
2022-11-04T02:23:53.478Z,0.00
2022-11-04T02:24:53.459Z,0.00
2022-11-04T02:25:53.457Z,0.00
2022-11-04T02:26:53.431Z,0.00
2022-11-04T02:27:53.438Z,0.00
2022-11-04T02:28:53.406Z,0.00
2022-11-04T02:29:53.400Z,0.00
2022-11-04T02:30:53.377Z,0.00
2022-11-04T02:31:53.368Z,0.00
2022-11-04T02:32:53.366Z,0.00
2022-11-04T02:33:53.339Z,0.00
2022-11-04T02:34:53.317Z,0.00
2022-11-04T02:35:53.307Z,0.00
2022-11-04T02:36:53.301Z,0.00
2022-11-04T02:38:53.277Z,0.00
2022-11-04T02:39:53.277Z,0.00
2022-11-04T02:40:53.246Z,0.00
2022-11-04T02:41:53.236Z,0.00
2022-11-04T02:42:53.246Z,0.00
2022-11-04T02:43:53.216Z,0.00
2022-11-04T02:44:53.197Z,0.00
2022-11-04T02:45:53.177Z,0.00
2022-11-04T02:46:53.164Z,0.00
2022-11-04T02:47:53.166Z,0.00
2022-11-04T02:48:53.137Z,0.00
2022-11-04T02:49:53.144Z,0.00
2022-11-04T02:50:53.114Z,0.00
2022-11-04T02:51:53.104Z,0.00
2022-11-04T02:52:53.107Z,0.00
2022-11-04T02:53:53.075Z,0.00
2022-11-04T02:54:53.063Z,0.00
2022-11-04T02:55:53.056Z,0.00
2022-11-04T02:56:53.037Z,0.00
2022-11-04T02:57:53.050Z,0.00
2022-11-04T02:58:53.019Z,0.00
2022-11-04T02:59:52.996Z,0.00
2022-11-04T03:00:53.069Z,0.00
2022-11-04T03:01:53.091Z,0.00
2022-11-04T03:02:52.971Z,0.00
2022-11-04T03:03:52.955Z,0.00
2022-11-04T03:04:52.937Z,0.00
2022-11-04T03:05:52.922Z,0.00
2022-11-04T03:06:52.916Z,0.00
2022-11-04T03:07:52.905Z,0.00
2022-11-04T03:08:52.875Z,0.00
2022-11-04T03:09:52.873Z,0.00
2022-11-04T03:10:52.859Z,0.00
2022-11-04T03:11:52.850Z,0.00
2022-11-04T03:12:52.842Z,0.00
2022-11-04T03:13:52.811Z,0.00
2022-11-04T03:14:52.815Z,0.00
2022-11-04T03:15:52.795Z,0.00
2022-11-04T03:16:52.771Z,0.00
2022-11-04T03:17:52.770Z,0.00
2022-11-04T03:18:52.752Z,0.00
2022-11-04T03:19:52.740Z,0.00
2022-11-04T03:20:52.720Z,0.00
2022-11-04T03:21:52.721Z,0.00
2022-11-04T03:22:52.771Z,0.00
2022-11-04T03:23:52.684Z,0.00
2022-11-04T03:24:52.679Z,0.00
2022-11-04T03:25:52.652Z,0.00
2022-11-04T03:26:52.667Z,0.00
2022-11-04T03:27:52.656Z,0.00
2022-11-04T03:28:52.627Z,0.00
2022-11-04T03:29:52.616Z,0.00
2022-11-04T03:30:52.588Z,0.00
2022-11-04T03:31:52.578Z,0.00
2022-11-04T03:32:52.578Z,0.00
2022-11-04T03:33:52.558Z,0.00
2022-11-04T03:34:52.539Z,0.00
2022-11-04T03:35:52.527Z,0.00
2022-11-04T03:36:52.518Z,0.00
2022-11-04T03:37:52.513Z,0.00
2022-11-04T03:38:52.486Z,0.00
2022-11-04T03:39:52.475Z,0.00
2022-11-04T03:40:52.467Z,0.00
2022-11-04T03:41:52.446Z,0.00
2022-11-04T03:42:52.470Z,0.00
2022-11-04T03:43:52.427Z,0.00
2022-11-04T03:44:52.407Z,0.00
2022-11-04T03:45:52.397Z,0.00
2022-11-04T03:46:52.387Z,0.00
2022-11-04T03:47:52.375Z,0.00
2022-11-04T03:48:52.364Z,0.00
2022-11-04T03:49:52.345Z,0.00
2022-11-04T03:50:52.325Z,0.00
2022-11-04T03:51:52.318Z,0.00
2022-11-04T03:52:52.317Z,0.00
2022-11-04T03:53:52.284Z,0.00
2022-11-04T03:54:52.279Z,0.00
2022-11-04T03:55:52.263Z,0.00
2022-11-04T03:56:52.253Z,0.00
2022-11-04T03:57:52.244Z,0.00
2022-11-04T03:58:52.222Z,0.00
2022-11-04T03:59:52.213Z,0.00
2022-11-04T04:00:52.281Z,0.00
2022-11-04T04:01:52.359Z,0.00
2022-11-04T04:02:52.192Z,0.00
2022-11-04T04:03:52.152Z,0.00
2022-11-04T04:04:52.150Z,0.00
2022-11-04T04:05:52.153Z,0.00
2022-11-04T04:06:52.131Z,0.00
2022-11-04T04:07:52.120Z,0.00
2022-11-04T04:08:52.102Z,0.00
2022-11-04T04:09:52.091Z,0.00
2022-11-04T04:10:52.072Z,0.00
2022-11-04T04:11:52.052Z,0.00
2022-11-04T04:12:52.071Z,0.00
2022-11-04T04:13:52.038Z,0.00
2022-11-04T04:14:52.012Z,0.00
2022-11-04T04:15:51.999Z,0.00
2022-11-04T04:16:51.990Z,0.00
2022-11-04T04:17:51.990Z,0.00
2022-11-04T04:18:55.652Z,0.00
2022-11-04T04:19:52.949Z,0.00
2022-11-04T04:20:51.929Z,0.00
2022-11-04T04:21:51.919Z,0.00
2022-11-04T04:22:51.920Z,0.00
2022-11-04T04:23:51.897Z,0.00
2022-11-04T04:24:51.898Z,0.00
2022-11-04T04:25:51.869Z,0.00
2022-11-04T04:26:51.858Z,0.00
2022-11-04T04:27:51.856Z,0.00
2022-11-04T04:28:51.852Z,0.00
2022-11-04T04:29:51.824Z,0.00
2022-11-04T04:30:54.166Z,0.00
2022-11-04T04:31:52.821Z,0.00
2022-11-04T04:32:51.787Z,0.00
2022-11-04T04:33:51.758Z,0.00
2022-11-04T04:34:51.760Z,0.00
2022-11-04T04:35:51.736Z,0.00
2022-11-04T04:36:51.735Z,0.00
2022-11-04T04:37:51.727Z,0.00
2022-11-04T04:38:51.705Z,0.00
2022-11-04T04:39:51.687Z,0.00
2022-11-04T04:40:51.677Z,0.00
2022-11-04T04:41:51.662Z,0.00
2022-11-04T04:42:51.668Z,0.00
2022-11-04T04:43:51.635Z,0.00
2022-11-04T04:44:51.636Z,0.00
2022-11-04T04:45:51.604Z,0.00
2022-11-04T04:46:51.604Z,0.00
2022-11-04T04:47:51.578Z,0.00
2022-11-04T04:48:51.584Z,0.00
2022-11-04T04:49:51.557Z,0.00
2022-11-04T04:50:51.545Z,0.00
2022-11-04T04:51:51.525Z,0.00
2022-11-04T04:52:51.524Z,0.00
2022-11-04T04:53:51.511Z,0.00
2022-11-04T04:54:51.515Z,0.00
2022-11-04T04:55:51.473Z,0.00
2022-11-04T04:56:51.452Z,0.00
2022-11-04T04:57:51.461Z,0.00
2022-11-04T04:58:51.451Z,0.00
2022-11-04T04:59:51.422Z,0.00
2022-11-04T05:00:51.447Z,0.00
2022-11-04T05:01:51.457Z,0.00
2022-11-04T05:02:51.381Z,0.00
2022-11-04T05:03:51.381Z,0.00
2022-11-04T05:04:51.360Z,0.00
2022-11-04T05:05:52.646Z,0.00
2022-11-04T05:06:51.331Z,0.00
2022-11-04T05:07:51.310Z,0.00
2022-11-04T05:08:51.330Z,0.00
2022-11-04T05:09:51.289Z,0.00
2022-11-04T05:10:51.290Z,0.00
2022-11-04T05:11:51.261Z,0.00
2022-11-04T05:12:51.259Z,0.00
2022-11-04T05:13:51.250Z,0.00
2022-11-04T05:14:51.231Z,0.00
2022-11-04T05:15:51.226Z,0.00
2022-11-04T05:16:51.198Z,0.00
2022-11-04T05:17:51.181Z,0.00
2022-11-04T05:18:51.208Z,0.00
2022-11-04T05:19:51.157Z,0.00
2022-11-04T05:20:51.150Z,0.00
2022-11-04T05:21:51.139Z,0.00
2022-11-04T05:22:51.128Z,0.00
2022-11-04T05:23:51.107Z,0.00
2022-11-04T05:24:51.099Z,0.00
2022-11-04T05:25:51.079Z,0.00
2022-11-04T05:26:51.069Z,0.00
2022-11-04T05:27:51.046Z,0.00
2022-11-04T05:28:51.052Z,0.00
2022-11-04T05:29:51.025Z,0.00
2022-11-04T05:30:51.016Z,0.00
2022-11-04T05:31:51.018Z,0.00
2022-11-04T05:32:51.001Z,0.00
2022-11-04T05:33:50.986Z,0.00
2022-11-04T05:34:50.956Z,0.00
2022-11-04T05:35:50.955Z,0.00
2022-11-04T05:36:50.937Z,0.00
2022-11-04T05:37:50.915Z,0.00
2022-11-04T05:38:50.914Z,0.00
2022-11-04T05:39:50.899Z,0.00
2022-11-04T05:40:50.884Z,0.00
2022-11-04T05:41:50.865Z,0.00
2022-11-04T05:42:50.874Z,0.00
2022-11-04T05:43:50.853Z,0.00
2022-11-04T05:44:50.841Z,0.00
2022-11-04T05:45:50.814Z,0.00
2022-11-04T05:46:50.793Z,0.00
2022-11-04T05:47:50.783Z,0.00
2022-11-04T05:48:50.806Z,0.00
2022-11-04T05:49:50.762Z,0.00
2022-11-04T05:50:50.752Z,0.00
2022-11-04T05:51:50.732Z,0.00
2022-11-04T05:52:50.731Z,0.00
2022-11-04T05:53:50.744Z,0.00
2022-11-04T05:54:50.692Z,0.00
2022-11-04T05:55:50.682Z,0.00
2022-11-04T05:56:50.682Z,0.00
2022-11-04T05:57:50.665Z,0.00
2022-11-04T05:58:50.660Z,0.00
2022-11-04T05:59:50.629Z,0.00
2022-11-04T06:00:50.619Z,0.00
2022-11-04T06:01:50.672Z,0.00
2022-11-04T06:02:50.640Z,0.00
2022-11-04T06:03:50.590Z,0.00
2022-11-04T06:04:50.561Z,0.00
2022-11-04T06:05:50.552Z,0.00
2022-11-04T06:06:50.558Z,0.00
2022-11-04T06:07:50.538Z,0.00
2022-11-04T06:08:50.522Z,0.00
2022-11-04T06:09:50.506Z,0.00
2022-11-04T06:10:50.488Z,0.00
2022-11-04T06:11:50.470Z,4.00
2022-11-04T06:12:50.479Z,4.00
2022-11-04T06:13:50.447Z,0.00
2022-11-04T06:14:50.438Z,0.00
2022-11-04T06:15:50.432Z,0.00
2022-11-04T06:16:50.419Z,4.00
2022-11-04T06:17:50.437Z,4.00
2022-11-04T06:18:50.398Z,4.00
2022-11-04T06:19:50.367Z,4.00
2022-11-04T06:20:50.356Z,4.00
2022-11-04T06:21:50.339Z,4.00
2022-11-04T06:22:50.326Z,8.00
2022-11-04T06:23:50.335Z,4.00
2022-11-04T06:24:50.297Z,4.00
2022-11-04T06:25:50.296Z,8.00
2022-11-04T06:26:50.276Z,8.00
2022-11-04T06:27:50.283Z,8.00
2022-11-04T06:28:50.256Z,8.00
2022-11-04T06:29:50.244Z,8.00
2022-11-04T06:30:50.223Z,8.00
2022-11-04T06:31:50.211Z,8.00
2022-11-04T06:32:50.204Z,8.00
2022-11-04T06:33:50.241Z,12.00
2022-11-04T06:34:50.189Z,12.00
2022-11-04T06:35:50.164Z,8.00
2022-11-04T06:36:50.146Z,12.00
2022-11-04T06:37:50.145Z,12.00
2022-11-04T06:38:50.115Z,16.00
2022-11-04T06:39:50.202Z,12.00
2022-11-04T06:40:50.125Z,16.00
2022-11-04T06:41:51.729Z,20.00
2022-11-04T06:42:50.063Z,16.00
2022-11-04T06:43:50.055Z,20.00
2022-11-04T06:44:50.062Z,20.00
2022-11-04T06:45:50.045Z,24.00
2022-11-04T06:46:50.030Z,20.00
2022-11-04T06:47:50.012Z,24.00
2022-11-04T06:48:49.982Z,28.00
2022-11-04T06:49:49.989Z,28.00
2022-11-04T06:50:49.966Z,28.00
2022-11-04T06:51:49.953Z,32.00
2022-11-04T06:52:49.931Z,32.00
2022-11-04T06:53:49.932Z,36.00
2022-11-04T06:54:49.920Z,36.00
2022-11-04T06:55:49.901Z,40.00
2022-11-04T06:56:49.879Z,40.00
2022-11-04T06:57:49.880Z,40.00
2022-11-04T06:58:49.850Z,40.00
2022-11-04T06:59:49.959Z,52.00
2022-11-04T07:00:49.873Z,56.00
2022-11-04T07:01:49.943Z,60.00
2022-11-04T07:02:49.865Z,60.00
2022-11-04T07:03:49.792Z,56.00
2022-11-04T07:04:49.800Z,52.00
2022-11-04T07:05:49.774Z,44.00
2022-11-04T07:06:49.749Z,44.00
2022-11-04T07:07:49.738Z,48.00
2022-11-04T07:08:49.728Z,52.00
2022-11-04T07:09:49.717Z,48.00
2022-11-04T07:10:49.707Z,52.00
2022-11-04T07:11:49.688Z,64.00
2022-11-04T07:12:49.670Z,72.00
2022-11-04T07:13:49.669Z,72.00
2022-11-04T07:14:49.646Z,88.00
2022-11-04T07:15:49.647Z,92.00
2022-11-04T07:16:49.617Z,92.00
2022-11-04T07:17:49.607Z,92.00
2022-11-04T07:18:49.599Z,96.00
2022-11-04T07:19:49.595Z,96.00
2022-11-04T07:20:49.593Z,104.00
2022-11-04T07:21:49.569Z,108.00
2022-11-04T07:22:49.548Z,108.00
2022-11-04T07:23:49.527Z,100.00
2022-11-04T07:24:49.516Z,96.00
2022-11-04T07:25:49.505Z,100.00
2022-11-04T07:26:49.579Z,108.00
2022-11-04T07:27:49.474Z,116.00
2022-11-04T07:28:49.455Z,116.00
2022-11-04T07:29:49.454Z,120.00
2022-11-04T07:30:49.444Z,120.00
2022-11-04T07:31:49.434Z,112.00
2022-11-04T07:32:49.404Z,100.00
2022-11-04T07:33:49.405Z,96.00
2022-11-04T07:34:49.383Z,92.00
2022-11-04T07:35:51.172Z,92.00
2022-11-04T07:36:49.372Z,92.00
2022-11-04T07:37:49.342Z,84.00
2022-11-04T07:38:49.333Z,80.00
2022-11-04T07:39:49.332Z,72.00
2022-11-04T07:40:49.305Z,68.00
2022-11-04T07:41:49.293Z,64.00
2022-11-04T07:42:49.296Z,64.00
2022-11-04T07:43:49.272Z,64.00
2022-11-04T07:44:49.424Z,64.00
2022-11-04T07:45:49.260Z,64.00
2022-11-04T07:46:49.241Z,72.00
2022-11-04T07:47:49.223Z,76.00
2022-11-04T07:48:49.202Z,84.00
2022-11-04T07:49:49.234Z,92.00
2022-11-04T07:50:49.173Z,96.00
2022-11-04T07:51:49.168Z,108.00
2022-11-04T07:52:49.170Z,116.00
2022-11-04T07:53:49.131Z,120.00
2022-11-04T07:54:49.139Z,124.00
2022-11-04T07:55:49.100Z,132.00
2022-11-04T07:56:49.108Z,136.00
2022-11-04T07:57:49.109Z,144.00
2022-11-04T07:58:49.069Z,156.00
2022-11-04T07:59:49.049Z,168.00
2022-11-04T08:00:49.049Z,168.00
2022-11-04T08:01:49.211Z,176.00
2022-11-04T08:02:49.029Z,188.00
2022-11-04T08:03:49.012Z,204.00
2022-11-04T08:04:48.986Z,220.00
2022-11-04T08:05:48.973Z,232.00
2022-11-04T08:06:48.965Z,244.00
2022-11-04T08:07:48.946Z,244.00
2022-11-04T08:08:49.016Z,240.00
2022-11-04T08:09:48.918Z,232.00
2022-11-04T08:10:48.918Z,216.00
2022-11-04T08:11:48.895Z,208.00
2022-11-04T08:12:48.895Z,212.00
2022-11-04T08:13:48.886Z,224.00
2022-11-04T08:14:48.856Z,224.00
2022-11-04T08:15:48.847Z,228.00
2022-11-04T08:16:48.830Z,232.00
2022-11-04T08:17:48.814Z,228.00
2022-11-04T08:18:48.804Z,224.00
2022-11-04T08:19:48.817Z,216.00
2022-11-04T08:20:48.784Z,208.00
2022-11-04T08:21:48.775Z,200.00
2022-11-04T08:22:48.773Z,196.00
2022-11-04T08:23:48.736Z,188.00
2022-11-04T08:24:48.743Z,200.00
2022-11-04T08:25:48.712Z,208.00
2022-11-04T08:26:48.712Z,216.00
2022-11-04T08:27:48.685Z,232.00
2022-11-04T08:28:48.673Z,240.00
2022-11-04T08:29:48.665Z,240.00
2022-11-04T08:30:48.643Z,244.00
2022-11-04T08:31:48.642Z,244.00
2022-11-04T08:32:48.622Z,248.00
2022-11-04T08:33:48.612Z,256.00
2022-11-04T08:34:48.623Z,256.00
2022-11-04T08:35:48.582Z,244.00
2022-11-04T08:36:48.568Z,236.00
2022-11-04T08:37:48.561Z,232.00
2022-11-04T08:38:48.551Z,236.00
2022-11-04T08:39:48.545Z,240.00
2022-11-04T08:40:48.520Z,248.00
2022-11-04T08:41:48.502Z,256.00
2022-11-04T08:42:48.490Z,264.00
2022-11-04T08:43:48.470Z,284.00
2022-11-04T08:44:48.461Z,304.00
2022-11-04T08:45:48.461Z,312.00
2022-11-04T08:46:48.443Z,336.00
2022-11-04T08:47:48.431Z,364.00
2022-11-04T08:48:48.408Z,408.00
2022-11-04T08:49:48.391Z,364.00
2022-11-04T08:50:48.399Z,372.00
2022-11-04T08:51:48.379Z,372.00
2022-11-04T08:52:48.492Z,396.00
2022-11-04T08:53:48.339Z,400.00
2022-11-04T08:54:50.405Z,396.00
2022-11-04T08:55:49.328Z,408.00
2022-11-04T08:56:48.297Z,424.00
2022-11-04T08:57:48.288Z,436.00
2022-11-04T08:58:48.279Z,444.00
2022-11-04T08:59:48.259Z,444.00
2022-11-04T09:00:48.300Z,440.00
2022-11-04T09:01:48.286Z,444.00
2022-11-04T09:02:48.239Z,448.00
2022-11-04T09:03:48.263Z,444.00
2022-11-04T09:04:48.209Z,432.00
2022-11-04T09:05:48.184Z,424.00
2022-11-04T09:06:48.197Z,416.00
2022-11-04T09:07:48.165Z,404.00
2022-11-04T09:08:48.146Z,404.00
2022-11-04T09:09:48.135Z,404.00
2022-11-04T09:10:48.126Z,392.00
2022-11-04T09:11:48.116Z,388.00
2022-11-04T09:12:48.102Z,392.00
2022-11-04T09:13:48.074Z,408.00
2022-11-04T09:14:48.075Z,448.00
2022-11-04T09:15:48.056Z,572.00
2022-11-04T09:16:48.064Z,648.00
2022-11-04T09:17:48.070Z,552.00
2022-11-04T09:18:48.015Z,540.00
2022-11-04T09:19:48.006Z,476.00
2022-11-04T09:20:47.994Z,492.00
2022-11-04T09:21:47.984Z,504.00
2022-11-04T09:22:47.978Z,504.00
2022-11-04T09:23:47.953Z,472.00
2022-11-04T09:24:47.934Z,496.00
2022-11-04T09:25:47.933Z,532.00
2022-11-04T09:26:47.912Z,516.00
2022-11-04T09:27:47.906Z,528.00
2022-11-04T09:28:47.883Z,548.00
2022-11-04T09:29:47.892Z,468.00
2022-11-04T09:30:47.859Z,456.00
2022-11-04T09:31:47.842Z,436.00
2022-11-04T09:32:52.584Z,424.00
2022-11-04T09:33:48.813Z,412.00
2022-11-04T09:34:47.806Z,400.00
2022-11-04T09:35:47.792Z,388.00
2022-11-04T09:36:47.775Z,384.00
2022-11-04T09:37:47.780Z,380.00
2022-11-04T09:38:47.753Z,380.00
2022-11-04T09:39:52.739Z,376.00
2022-11-04T09:40:48.719Z,376.00
2022-11-04T09:41:47.715Z,376.00
2022-11-04T09:42:47.691Z,376.00
2022-11-04T09:43:47.699Z,376.00
2022-11-04T09:45:07.357Z,372.00
2022-11-04T09:45:48.659Z,372.00
2022-11-04T09:46:47.649Z,380.00
2022-11-04T09:47:47.630Z,392.00
2022-11-04T09:48:47.631Z,408.00
2022-11-04T09:49:47.609Z,428.00
2022-11-04T09:50:47.598Z,452.00
2022-11-04T09:51:54.438Z,484.00
2022-11-04T09:52:48.580Z,516.00
2022-11-04T09:53:47.667Z,552.00
2022-11-04T09:54:47.689Z,588.00
2022-11-04T09:55:47.537Z,628.00
2022-11-04T09:56:47.508Z,660.00
2022-11-04T09:57:47.921Z,688.00
2022-11-04T09:58:47.516Z,716.00
2022-11-04T09:59:47.480Z,752.00
2022-11-04T10:00:47.500Z,744.00
2022-11-04T10:01:47.587Z,752.00
2022-11-04T10:02:47.437Z,708.00
2022-11-04T10:03:47.426Z,636.00
2022-11-04T10:04:47.476Z,588.00
2022-11-04T10:05:47.395Z,556.00
2022-11-04T10:06:47.376Z,544.00
2022-11-04T10:07:47.367Z,532.00
2022-11-04T10:08:47.354Z,536.00
2022-11-04T10:09:47.373Z,548.00
2022-11-04T10:10:47.326Z,568.00
2022-11-04T10:11:47.348Z,588.00
2022-11-04T10:12:47.314Z,620.00
2022-11-04T10:13:47.285Z,584.00
2022-11-04T10:14:47.274Z,636.00
2022-11-04T10:15:47.284Z,552.00
2022-11-04T10:16:47.244Z,612.00
2022-11-04T10:17:47.244Z,688.00
2022-11-04T10:18:47.218Z,656.00
2022-11-04T10:19:47.211Z,572.00
2022-11-04T10:20:47.203Z,540.00
2022-11-04T10:21:47.198Z,564.00
2022-11-04T10:22:47.186Z,552.00
2022-11-04T10:23:47.162Z,556.00
2022-11-04T10:24:47.152Z,708.00
2022-11-04T10:25:47.143Z,572.00
2022-11-04T10:26:47.120Z,712.00
2022-11-04T10:27:47.103Z,856.00
2022-11-04T10:28:47.092Z,812.00
2022-11-04T10:29:47.082Z,740.00
2022-11-04T10:30:47.086Z,796.00
2022-11-04T10:31:47.071Z,824.00
2022-11-04T10:32:47.033Z,828.00
2022-11-04T10:33:47.041Z,932.00
2022-11-04T10:34:47.012Z,920.00
2022-11-04T10:35:47.002Z,964.00
2022-11-04T10:36:47.002Z,968.00
2022-11-04T10:37:46.980Z,972.00
2022-11-04T10:38:46.962Z,984.00
2022-11-04T10:39:46.962Z,980.00
2022-11-04T10:40:46.941Z,972.00
2022-11-04T10:41:46.940Z,976.00
2022-11-04T10:42:46.911Z,992.00
2022-11-04T10:43:47.012Z,1004.00
2022-11-04T10:44:46.881Z,1016.00
2022-11-04T10:45:46.881Z,1040.00
2022-11-04T10:46:46.871Z,916.00
2022-11-04T10:47:46.858Z,816.00
2022-11-04T10:48:46.832Z,1064.00
2022-11-04T10:50:00.455Z,928.00
2022-11-04T10:50:47.800Z,1124.00
2022-11-04T10:51:46.799Z,792.00
2022-11-04T10:52:46.788Z,588.00
2022-11-04T10:53:46.778Z,548.00
2022-11-04T10:54:46.766Z,524.00
2022-11-04T10:55:46.751Z,540.00
2022-11-04T10:56:46.880Z,1204.00
2022-11-04T10:57:46.743Z,1280.00
2022-11-04T10:58:46.721Z,588.00
2022-11-04T10:59:46.692Z,548.00
2022-11-04T11:00:46.733Z,540.00
2022-11-04T11:01:46.776Z,524.00
2022-11-04T11:02:46.689Z,1056.00
2022-11-04T11:03:46.667Z,1228.00
2022-11-04T11:04:46.628Z,1460.00
2022-11-04T11:05:46.616Z,804.00
2022-11-04T11:06:46.695Z,1080.00
2022-11-04T11:07:46.665Z,1016.00
2022-11-04T11:08:46.714Z,792.00
2022-11-04T11:09:51.069Z,408.00
2022-11-04T11:10:47.623Z,380.00
2022-11-04T11:11:46.537Z,400.00
2022-11-04T11:12:51.396Z,336.00
2022-11-04T11:13:47.534Z,328.00
2022-11-04T11:14:46.495Z,332.00
2022-11-04T11:15:46.495Z,316.00
2022-11-04T11:16:46.474Z,316.00
2022-11-04T11:17:46.464Z,320.00
2022-11-04T11:18:46.475Z,320.00
2022-11-04T11:19:46.434Z,324.00
2022-11-04T11:20:46.414Z,332.00
2022-11-04T11:21:46.424Z,356.00
2022-11-04T11:22:46.393Z,348.00
2022-11-04T11:23:46.394Z,328.00
2022-11-04T11:24:46.378Z,320.00
2022-11-04T11:25:46.353Z,312.00
2022-11-04T11:26:46.335Z,316.00
2022-11-04T11:27:46.339Z,324.00
2022-11-04T11:28:46.322Z,336.00
2022-11-04T11:29:46.321Z,344.00
2022-11-04T11:30:46.282Z,360.00
2022-11-04T11:31:46.272Z,364.00
2022-11-04T11:32:46.255Z,372.00
2022-11-04T11:33:46.251Z,360.00
2022-11-04T11:34:46.252Z,356.00
2022-11-04T11:35:46.222Z,348.00
2022-11-04T11:36:46.221Z,340.00
2022-11-04T11:37:46.215Z,336.00
2022-11-04T11:38:46.192Z,324.00
2022-11-04T11:39:46.182Z,316.00
2022-11-04T11:41:10.511Z,308.00
2022-11-04T11:41:50.488Z,304.00
2022-11-04T11:42:47.125Z,300.00
2022-11-04T11:43:46.121Z,296.00
2022-11-04T11:44:46.110Z,296.00
2022-11-04T11:45:46.111Z,296.00
2022-11-04T11:46:46.110Z,292.00
2022-11-04T11:47:46.071Z,288.00
2022-11-04T11:48:46.061Z,284.00
2022-11-04T11:49:46.050Z,280.00
2022-11-04T11:50:46.043Z,276.00
2022-11-04T11:51:46.020Z,272.00
2022-11-04T11:52:46.011Z,268.00
2022-11-04T11:53:46.009Z,260.00
2022-11-04T11:54:46.001Z,248.00
2022-11-04T11:55:45.983Z,236.00
2022-11-04T11:57:11.897Z,224.00
2022-11-04T12:00:48.669Z,204.00
2022-11-04T12:01:46.057Z,200.00
2022-11-04T12:02:46.014Z,200.00
2022-11-04T12:09:46.785Z,224.00
2022-11-04T12:10:50.953Z,224.00
2022-11-04T12:11:46.758Z,224.00
2022-11-04T12:12:45.766Z,228.00
2022-11-04T12:13:45.734Z,232.00
2022-11-04T12:14:48.853Z,236.00
2022-11-04T12:15:45.729Z,244.00
2022-11-04T12:16:45.704Z,248.00
2022-11-04T12:17:45.686Z,252.00
2022-11-04T12:18:45.666Z,260.00
2022-11-04T12:19:45.655Z,264.00
2022-11-04T12:20:45.650Z,268.00
2022-11-04T12:21:45.669Z,272.00
2022-11-04T12:22:45.636Z,280.00
2022-11-04T12:23:45.614Z,292.00
2022-11-04T12:24:45.785Z,300.00
2022-11-04T12:25:45.583Z,308.00
2022-11-04T12:26:45.586Z,316.00
2022-11-04T12:27:45.568Z,328.00
2022-11-04T12:28:45.540Z,340.00
2022-11-04T12:29:45.554Z,356.00
2022-11-04T12:30:45.515Z,372.00
2022-11-04T12:31:45.504Z,388.00
2022-11-04T12:32:45.485Z,404.00
2022-11-04T12:33:45.522Z,416.00
2022-11-04T12:34:45.475Z,432.00
2022-11-04T12:35:45.493Z,444.00
2022-11-04T12:36:45.444Z,456.00
2022-11-04T12:37:45.421Z,468.00
2022-11-04T12:38:45.415Z,472.00
2022-11-04T12:39:45.404Z,472.00
2022-11-04T12:40:59.339Z,472.00
2022-11-04T12:42:18.894Z,464.00
2022-11-04T12:42:46.363Z,460.00
2022-11-04T12:43:45.371Z,448.00
2022-11-04T12:44:45.352Z,444.00
2022-11-04T12:45:45.323Z,432.00
2022-11-04T12:46:45.311Z,428.00
2022-11-04T12:47:45.314Z,416.00
2022-11-04T12:48:45.293Z,412.00
2022-11-04T12:49:45.272Z,404.00
2022-11-04T12:50:45.256Z,396.00
2022-11-04T12:51:45.275Z,392.00
2022-11-04T12:52:45.231Z,388.00
2022-11-04T12:53:45.213Z,388.00
2022-11-04T12:54:45.230Z,388.00
2022-11-04T12:55:45.193Z,392.00
2022-11-04T12:56:45.181Z,392.00
2022-11-04T12:57:45.204Z,396.00
2022-11-04T12:58:45.150Z,392.00
2022-11-04T12:59:45.150Z,384.00
2022-11-04T13:00:45.190Z,376.00
2022-11-04T13:01:45.266Z,368.00
2022-11-04T13:02:45.154Z,356.00
2022-11-04T13:03:45.109Z,344.00
2022-11-04T13:04:45.079Z,332.00